Navigator Of The Seas — C6FU4 — position and weather

sailwx.info

Track history (hours):
 
Tides and Currents Weather Stations Pressure Air Temp Water Temp Dewpoint Dewpoint Depression Visibility Wind Speed Wind Dir Waves Ship Positions

Navigator Of The Seas

Operator: Royal Caribbean Cruises Ltd

Last reported at 2017-Aug-20 20:30 UTC. Time now 2017-Aug-20 20:47 UTC.
Position N 49°38' W 000°23'.

Type: Passenger vessel. MMSI: 311478000.

Date/timePositionNaut miles runAvg speedWind from/ knotsBaromVisibWave heightAir tempDewpointWater temp
2017-Aug-20 20:30N 49°38' W 000°23'815.3
2017-Aug-20 20:00N 49°34' W 000°12'713.6
2017-Aug-20 19:31N 49°31' W 000°03'612.7
2017-Aug-20 19:00N 49°29' E 000°06'0 0.1
2017-Aug-20 18:30N 49°29' E 000°06'0 0.0
2017-Aug-20 17:54N 49°29' E 000°06'0 0.0
2017-Aug-20 17:30N 49°29' E 000°06'0 0.0
2017-Aug-20 17:00N 49°29' E 000°06'0 0.0
2017-Aug-20 16:30N 49°29' E 000°06'0 0.0
2017-Aug-20 16:00N 49°29' E 000°06'0 0.0
2017-Aug-20 15:30N 49°29' E 000°06'0 0.0
2017-Aug-20 15:00N 49°29' E 000°06'0 0.0
2017-Aug-20 14:30N 49°29' E 000°06'0 0.0
2017-Aug-20 14:00N 49°29' E 000°06'0 0.0
2017-Aug-20 13:30N 49°29' E 000°06'0 0.0
2017-Aug-20 13:00N 49°29' E 000°06'0 0.0
2017-Aug-20 12:30N 49°29' E 000°06'0 0.0
2017-Aug-20 12:00N 49°29' E 000°06'0 0.0
2017-Aug-20 11:30N 49°29' E 000°06'0 0.0
2017-Aug-20 11:00N 49°29' E 000°06'0 0.0
2017-Aug-20 10:30N 49°29' E 000°06'0 0.0
2017-Aug-20 10:00N 49°29' E 000°06'0 0.0
2017-Aug-20 09:30N 49°29' E 000°06'0 0.0
2017-Aug-20 09:00N 49°29' E 000°06'0 0.0
2017-Aug-20 08:30N 49°29' E 000°06'0 0.0
2017-Aug-20 08:00N 49°29' E 000°06'0 0.0
2017-Aug-20 07:30N 49°29' E 000°06'0 0.0
2017-Aug-20 07:00N 49°29' E 000°06'0 0.0
2017-Aug-20 06:30N 49°29' E 000°06'0 0.0
2017-Aug-20 06:00N 49°29' E 000°06'0 0.0
2017-Aug-20 05:30N 49°29' E 000°06'0 0.0
2017-Aug-20 05:00N 49°29' E 000°06'1 1.1
2017-Aug-20 04:31N 49°29' E 000°07'4 7.5
2017-Aug-20 04:01N 49°30' E 000°02'611.8
2017-Aug-20 03:31N 49°32' W 000°07'4 8.4
2017-Aug-20 03:00N 49°34' W 000°13'4 8.8
2017-Aug-20 02:30N 49°36' W 000°18'4 8.9
2017-Aug-20 02:00N 49°39' W 000°23'12 9.0
2017-Aug-20 00:40N 49°48' W 000°36'1 9.1
2017-Aug-20 00:30N 49°49' W 000°38'4 9.0
2017-Aug-20 00:00N 49°53' W 000°42'4 8.9
2017-Aug-19 23:30N 49°56' W 000°47'4 8.3
2017-Aug-19 23:00N 49°59' W 000°51'4 8.3
2017-Aug-19 22:30N 50°02' W 000°55'4 8.0
2017-Aug-19 22:00N 50°06' W 000°57'4 8.6
2017-Aug-19 21:30N 50°10' W 000°58'5 8.6
2017-Aug-19 20:52N 50°16' W 000°59'4 8.7
2017-Aug-19 20:28N 50°19' W 000°60'4 8.7
2017-Aug-19 19:59N 50°23' W 001°01'4 8.2
2017-Aug-19 19:30N 50°27' W 001°00'4 7.9
2017-Aug-19 19:00N 50°31' W 000°60'4 8.2
2017-Aug-19 18:30N 50°35' W 000°59'5 9.5
2017-Aug-19 18:00N 50°40' W 000°58'4 8.0
2017-Aug-19 17:31N 50°43' W 001°02'815.8
2017-Aug-19 17:00N 50°46' W 001°13'5 9.6
2017-Aug-19 16:30N 50°49' W 001°18'5 9.9
2017-Aug-19 16:00N 50°53' W 001°24'1 2.0
2017-Aug-19 15:27N 50°54' W 001°25'0 0.0
2017-Aug-19 15:00N 50°54' W 001°25'0 0.0
2017-Aug-19 14:00N 50°54' W 001°25'0 0.0
2017-Aug-19 13:27N 50°54' W 001°25'0 0.0
2017-Aug-19 13:00N 50°54' W 001°25'0 0.0
2017-Aug-19 12:30N 50°54' W 001°25'0 0.0
2017-Aug-19 11:57N 50°54' W 001°25'0 0.0
2017-Aug-19 11:30N 50°54' W 001°25'0 0.0
2017-Aug-19 11:00N 50°54' W 001°25'0 0.0
2017-Aug-19 10:30N 50°54' W 001°25'0 0.0
2017-Aug-19 10:00N 50°54' W 001°25'0 0.0
2017-Aug-19 09:30N 50°54' W 001°25'0 0.0
2017-Aug-19 08:57N 50°54' W 001°25'0 0.0
2017-Aug-19 08:30N 50°54' W 001°25'0 0.0
2017-Aug-19 08:00N 50°54' W 001°25'0 0.0
2017-Aug-19 07:30N 50°54' W 001°25'0 0.0
2017-Aug-19 07:00N 50°54' W 001°25'0 0.0
2017-Aug-19 06:30N 50°54' W 001°25'0 0.0
2017-Aug-19 05:57N 50°54' W 001°25'0 0.0
2017-Aug-19 05:30N 50°54' W 001°25'0 0.0
2017-Aug-19 05:00N 50°54' W 001°25'0 0.0
2017-Aug-19 04:30N 50°54' W 001°25'0 0.0
2017-Aug-19 04:00N 50°54' W 001°25'1 2.5
2017-Aug-19 03:30N 50°53' W 001°24'5 9.2
2017-Aug-19 03:00N 50°50' W 001°19'4 8.0
2017-Aug-19 02:30N 50°46' W 001°15'815.6
2017-Aug-19 02:00N 50°44' W 001°04'611.1
2017-Aug-19 01:30N 50°39' W 000°59'713.2
2017-Aug-19 01:01N 50°33' W 001°01'916.2
2017-Aug-19 00:29N 50°25' W 001°04'1313.4
2017-Aug-18 23:29N 50°12' W 001°10'612.6
2017-Aug-18 23:01N 50°09' W 001°18'713.0
2017-Aug-18 22:30N 50°06' W 001°28'713.1
2017-Aug-18 22:00N 50°04' W 001°37'713.2
2017-Aug-18 21:30N 50°02' W 001°47'713.7
2017-Aug-18 21:01N 49°60' W 001°57'714.2
2017-Aug-18 20:30N 49°58' W 002°08'3215.0
2017-Aug-18 18:24N 49°49' W 002°55'820.0
2017-Aug-18 18:00N 49°42' W 003°00'5116.5 270 / 221018.110.8 16.012.716.0
2017-Aug-18 17:57N 49°46' W 003°04'715.5
2017-Aug-18 17:28N 49°42' W 003°14'715.4
2017-Aug-18 17:01N 49°39' W 003°24'815.4
2017-Aug-18 16:31N 49°34' W 003°33'5817.4
2017-Aug-18 13:11N 49°04' W 004°49'417.8
2017-Aug-18 12:59N 49°03' W 004°54'917.9
2017-Aug-18 12:30N 48°58' W 005°05'918.2
2017-Aug-18 12:00N 48°54' W 005°17'917.9
2017-Aug-18 11:30N 48°49' W 005°29'917.3
2017-Aug-18 11:00N 48°43' W 005°39'54316.8
2017-Aug-17 02:40N 40°11' W 009°52'317.2
2017-Aug-17 02:30N 40°08' W 009°52'1217.4
2017-Aug-17 01:48N 39°56' W 009°52'617.1
2017-Aug-17 01:29N 39°51' W 009°52'817.2
2017-Aug-17 01:00N 39°43' W 009°51'917.3
2017-Aug-17 00:30N 39°34' W 009°51'917.5
2017-Aug-17 00:00N 39°25' W 009°51'917.2
2017-Aug-16 23:30N 39°17' W 009°52'917.4
2017-Aug-16 23:01N 39°08' W 009°52'917.6
2017-Aug-16 22:30N 38°59' W 009°52'917.5
2017-Aug-16 22:00N 38°50' W 009°52'917.4
2017-Aug-16 21:31N 38°42' W 009°51'816.4
2017-Aug-16 21:00N 38°36' W 009°43'918.1
2017-Aug-16 20:31N 38°35' W 009°31'816.6
2017-Aug-16 20:00N 38°38' W 009°21'713.5
2017-Aug-16 19:30N 38°41' W 009°14'510.0
2017-Aug-16 19:01N 38°42' W 009°08'0 0.8
2017-Aug-16 18:30N 38°43' W 009°07'0 0.0
2017-Aug-16 18:00N 38°43' W 009°07'0 0.0
2017-Aug-16 17:30N 38°43' W 009°07'0 0.0
2017-Aug-16 17:00N 38°43' W 009°07'0 0.0
2017-Aug-16 16:30N 38°43' W 009°07'0 0.0
2017-Aug-16 16:00N 38°43' W 009°07'0 0.0
2017-Aug-16 15:30N 38°43' W 009°07'0 0.0
2017-Aug-16 15:00N 38°43' W 009°07'0 0.0
2017-Aug-16 14:30N 38°43' W 009°07'0 0.0
2017-Aug-16 13:57N 38°43' W 009°07'0 0.0
2017-Aug-16 13:30N 38°43' W 009°07'0 0.0
2017-Aug-16 13:00N 38°43' W 009°07'0 0.0
2017-Aug-16 12:30N 38°43' W 009°07'0 0.0
2017-Aug-16 12:00N 38°43' W 009°07'0 0.0
2017-Aug-16 11:30N 38°43' W 009°07'0 0.0
2017-Aug-16 10:57N 38°43' W 009°07'0 0.0
2017-Aug-16 10:30N 38°43' W 009°07'0 0.0
2017-Aug-16 10:00N 38°43' W 009°07'0 0.0
2017-Aug-16 09:30N 38°43' W 009°07'0 0.0
2017-Aug-16 09:00N 38°43' W 009°07'0 0.5
2017-Aug-16 08:30N 38°42' W 009°07'5 9.8
2017-Aug-16 08:00N 38°41' W 009°14'612.9
2017-Aug-16 07:30N 38°38' W 009°21'714.9
2017-Aug-16 07:00N 38°32' W 009°25'918.5
2017-Aug-16 06:30N 38°22' W 009°26'917.1
2017-Aug-16 06:00N 38°14' W 009°25'816.8
2017-Aug-16 05:30N 38°05' W 009°24'816.4
2017-Aug-16 05:01N 37°57' W 009°24'816.5
2017-Aug-16 04:30N 37°49' W 009°24'816.9
2017-Aug-16 04:00N 37°40' W 009°23'816.9
2017-Aug-16 03:30N 37°32' W 009°23'816.8
2017-Aug-16 03:00N 37°24' W 009°23'917.0
2017-Aug-16 02:30N 37°15' W 009°22'916.9
2017-Aug-16 02:00N 37°07' W 009°22'817.1
2017-Aug-16 01:30N 36°58' W 009°21'816.2
2017-Aug-16 01:00N 36°51' W 009°17'816.6
2017-Aug-16 00:31N 36°46' W 009°09'917.6
2017-Aug-16 00:01N 36°44' W 008°58'917.6
2017-Aug-15 23:30N 36°43' W 008°47'917.3
2017-Aug-15 23:00N 36°42' W 008°36'917.1
2017-Aug-15 22:30N 36°41' W 008°26'917.6
2017-Aug-15 22:01N 36°40' W 008°15'917.7
2017-Aug-15 21:29N 36°39' W 008°03'817.6
2017-Aug-15 21:00N 36°39' W 007°53'1117.6
2017-Aug-15 20:24N 36°38' W 007°39'2117.6
2017-Aug-15 19:13N 36°36' W 007°14'81 4.2
2017-Aug-14 23:56N 35°58' W 005°45'1813.3
2017-Aug-14 22:33N 36°00' W 005°23'114.0
2017-Aug-14 22:31N 36°01' W 005°22'713.8
2017-Aug-14 22:00N 36°02' W 005°14'141 7.5
2017-Aug-14 03:18N 36°27' W 002°22'518.4
2017-Aug-14 03:00N 36°26' W 002°15'1017.8
2017-Aug-14 02:27N 36°29' W 002°03'6418.5
2017-Aug-13 23:00N 37°12' W 001°04'918.2
2017-Aug-13 22:30N 37°18' W 000°56'918.2
2017-Aug-13 22:00N 37°25' W 000°48'1118.0
2017-Aug-13 21:25N 37°32' W 000°38'717.8
2017-Aug-13 21:00N 37°37' W 000°32'917.7
2017-Aug-13 20:30N 37°44' W 000°25'4318.1
2017-Aug-13 18:08N 38°20' E 000°04'617.8
2017-Aug-13 17:47N 38°25' E 000°09'114 4.9
2017-Aug-12 18:38N 39°26' E 002°13'213.8
2017-Aug-12 18:30N 39°26' E 002°15'713.8
2017-Aug-12 18:00N 39°26' E 002°24'713.4
2017-Aug-12 17:30N 39°26' E 002°33'612.7
2017-Aug-12 17:00N 39°31' E 002°38'2 4.4
2017-Aug-12 16:30N 39°33' E 002°38'0 0.0
2017-Aug-12 15:59N 39°33' E 002°38'0 0.0
2017-Aug-12 15:29N 39°33' E 002°38'0 0.0
2017-Aug-12 14:59N 39°33' E 002°38'0 0.0
2017-Aug-12 14:29N 39°33' E 002°38'0 0.0
2017-Aug-12 13:59N 39°33' E 002°38'0 0.0
2017-Aug-12 13:29N 39°33' E 002°38'0 0.0
2017-Aug-12 12:59N 39°33' E 002°38'0 0.0
2017-Aug-12 12:29N 39°33' E 002°38'0 0.0
2017-Aug-12 11:59N 39°33' E 002°38'0 0.0
2017-Aug-12 11:29N 39°33' E 002°38'0 0.0
2017-Aug-12 10:59N 39°33' E 002°38'0 0.0
2017-Aug-12 10:23N 39°33' E 002°38'0 0.0
2017-Aug-12 09:59N 39°33' E 002°38'0 0.0
2017-Aug-12 09:29N 39°33' E 002°38'0 0.0
2017-Aug-12 08:59N 39°33' E 002°38'0 0.0
2017-Aug-12 08:29N 39°33' E 002°38'0 0.0
2017-Aug-12 07:59N 39°33' E 002°38'0 0.0
2017-Aug-12 07:29N 39°33' E 002°38'0 0.0
2017-Aug-12 06:59N 39°33' E 002°38'0 0.0
2017-Aug-12 06:29N 39°33' E 002°38'0 0.0
2017-Aug-12 05:59N 39°33' E 002°38'0 0.0
2017-Aug-12 05:29N 39°33' E 002°38'0 0.0
2017-Aug-12 04:59N 39°33' E 002°38'0 0.2
2017-Aug-12 04:30N 39°33' E 002°38'2 3.2
2017-Aug-12 04:01N 39°32' E 002°39'815.5
2017-Aug-12 03:30N 39°25' E 002°33'816.2
2017-Aug-12 03:00N 39°29' E 002°24'1215.7
2017-Aug-12 02:16N 39°38' E 002°16'517.1
2017-Aug-12 02:00N 39°43' E 002°16'817.0
2017-Aug-12 01:30N 39°51' E 002°15'816.9
2017-Aug-12 01:00N 39°60' E 002°15'916.8
2017-Aug-12 00:30N 40°08' E 002°14'817.0
2017-Aug-12 00:00N 40°17' E 002°13'816.8
2017-Aug-11 23:30N 40°25' E 002°12'817.0
2017-Aug-11 23:00N 40°34' E 002°13'917.1
2017-Aug-11 22:30N 40°42' E 002°12'917.1
2017-Aug-11 22:00N 40°51' E 002°12'917.7
2017-Aug-11 21:30N 40°60' E 002°11'917.6
2017-Aug-11 21:00N 41°08' E 002°10'1016.2
2017-Aug-11 20:25N 41°18' E 002°10'  
Track history (hours):
 
Tides and Currents Weather Stations Pressure Air Temp Water Temp Dewpoint Dewpoint Depression Visibility Wind Speed Wind Dir Waves Ship Positions

Navigator Of The Seas

Operator: Royal Caribbean Cruises Ltd

Last reported at 2017-Aug-20 20:30 UTC. Time now 2017-Aug-20 20:47 UTC.
Position N 49°38' W 000°23'.

Type: Passenger vessel. MMSI: 311478000.

Date/timePositionNaut miles runAvg speedWind from/ knotsBaromVisibWave heightAir tempDewpointWater temp
2017-Aug-20 20:30N 49°38' W 000°23'815.3
2017-Aug-20 20:00N 49°34' W 000°12'713.6
2017-Aug-20 19:31N 49°31' W 000°03'612.7
2017-Aug-20 19:00N 49°29' E 000°06'0 0.1
2017-Aug-20 18:30N 49°29' E 000°06'0 0.0
2017-Aug-20 17:54N 49°29' E 000°06'0 0.0
2017-Aug-20 17:30N 49°29' E 000°06'0 0.0
2017-Aug-20 17:00N 49°29' E 000°06'0 0.0
2017-Aug-20 16:30N 49°29' E 000°06'0 0.0
2017-Aug-20 16:00N 49°29' E 000°06'0 0.0
2017-Aug-20 15:30N 49°29' E 000°06'0 0.0
2017-Aug-20 15:00N 49°29' E 000°06'0 0.0
2017-Aug-20 14:30N 49°29' E 000°06'0 0.0
2017-Aug-20 14:00N 49°29' E 000°06'0 0.0
2017-Aug-20 13:30N 49°29' E 000°06'0 0.0
2017-Aug-20 13:00N 49°29' E 000°06'0 0.0
2017-Aug-20 12:30N 49°29' E 000°06'0 0.0
2017-Aug-20 12:00N 49°29' E 000°06'0 0.0
2017-Aug-20 11:30N 49°29' E 000°06'0 0.0
2017-Aug-20 11:00N 49°29' E 000°06'0 0.0
2017-Aug-20 10:30N 49°29' E 000°06'0 0.0
2017-Aug-20 10:00N 49°29' E 000°06'0 0.0
2017-Aug-20 09:30N 49°29' E 000°06'0 0.0
2017-Aug-20 09:00N 49°29' E 000°06'0 0.0
2017-Aug-20 08:30N 49°29' E 000°06'0 0.0
2017-Aug-20 08:00N 49°29' E 000°06'0 0.0
2017-Aug-20 07:30N 49°29' E 000°06'0 0.0
2017-Aug-20 07:00N 49°29' E 000°06'0 0.0
2017-Aug-20 06:30N 49°29' E 000°06'0 0.0
2017-Aug-20 06:00N 49°29' E 000°06'0 0.0
2017-Aug-20 05:30N 49°29' E 000°06'0 0.0
2017-Aug-20 05:00N 49°29' E 000°06'1 1.1
2017-Aug-20 04:31N 49°29' E 000°07'4 7.5
2017-Aug-20 04:01N 49°30' E 000°02'611.8
2017-Aug-20 03:31N 49°32' W 000°07'4 8.4
2017-Aug-20 03:00N 49°34' W 000°13'4 8.8
2017-Aug-20 02:30N 49°36' W 000°18'4 8.9
2017-Aug-20 02:00N 49°39' W 000°23'12 9.0
2017-Aug-20 00:40N 49°48' W 000°36'1 9.1
2017-Aug-20 00:30N 49°49' W 000°38'4 9.0
2017-Aug-20 00:00N 49°53' W 000°42'4 8.9
2017-Aug-19 23:30N 49°56' W 000°47'4 8.3
2017-Aug-19 23:00N 49°59' W 000°51'4 8.3
2017-Aug-19 22:30N 50°02' W 000°55'4 8.0
2017-Aug-19 22:00N 50°06' W 000°57'4 8.6
2017-Aug-19 21:30N 50°10' W 000°58'5 8.6
2017-Aug-19 20:52N 50°16' W 000°59'4 8.7
2017-Aug-19 20:28N 50°19' W 000°60'4 8.7
2017-Aug-19 19:59N 50°23' W 001°01'4 8.2
2017-Aug-19 19:30N 50°27' W 001°00'4 7.9
2017-Aug-19 19:00N 50°31' W 000°60'4 8.2
2017-Aug-19 18:30N 50°35' W 000°59'5 9.5
2017-Aug-19 18:00N 50°40' W 000°58'4 8.0
2017-Aug-19 17:31N 50°43' W 001°02'815.8
2017-Aug-19 17:00N 50°46' W 001°13'5 9.6
2017-Aug-19 16:30N 50°49' W 001°18'5 9.9
2017-Aug-19 16:00N 50°53' W 001°24'1 2.0
2017-Aug-19 15:27N 50°54' W 001°25'0 0.0
2017-Aug-19 15:00N 50°54' W 001°25'0 0.0
2017-Aug-19 14:00N 50°54' W 001°25'0 0.0
2017-Aug-19 13:27N 50°54' W 001°25'0 0.0
2017-Aug-19 13:00N 50°54' W 001°25'0 0.0
2017-Aug-19 12:30N 50°54' W 001°25'0 0.0
2017-Aug-19 11:57N 50°54' W 001°25'0 0.0
2017-Aug-19 11:30N 50°54' W 001°25'0 0.0
2017-Aug-19 11:00N 50°54' W 001°25'0 0.0
2017-Aug-19 10:30N 50°54' W 001°25'0 0.0
2017-Aug-19 10:00N 50°54' W 001°25'0 0.0
2017-Aug-19 09:30N 50°54' W 001°25'0 0.0
2017-Aug-19 08:57N 50°54' W 001°25'0 0.0
2017-Aug-19 08:30N 50°54' W 001°25'0 0.0
2017-Aug-19 08:00N 50°54' W 001°25'0 0.0
2017-Aug-19 07:30N 50°54' W 001°25'0 0.0
2017-Aug-19 07:00N 50°54' W 001°25'0 0.0
2017-Aug-19 06:30N 50°54' W 001°25'0 0.0
2017-Aug-19 05:57N 50°54' W 001°25'0 0.0
2017-Aug-19 05:30N 50°54' W 001°25'0 0.0
2017-Aug-19 05:00N 50°54' W 001°25'0 0.0
2017-Aug-19 04:30N 50°54' W 001°25'0 0.0
2017-Aug-19 04:00N 50°54' W 001°25'1 2.5
2017-Aug-19 03:30N 50°53' W 001°24'5 9.2
2017-Aug-19 03:00N 50°50' W 001°19'4 8.0
2017-Aug-19 02:30N 50°46' W 001°15'815.6
2017-Aug-19 02:00N 50°44' W 001°04'611.1
2017-Aug-19 01:30N 50°39' W 000°59'713.2
2017-Aug-19 01:01N 50°33' W 001°01'916.2
2017-Aug-19 00:29N 50°25' W 001°04'1313.4
2017-Aug-18 23:29N 50°12' W 001°10'612.6
2017-Aug-18 23:01N 50°09' W 001°18'713.0
2017-Aug-18 22:30N 50°06' W 001°28'713.1
2017-Aug-18 22:00N 50°04' W 001°37'713.2
2017-Aug-18 21:30N 50°02' W 001°47'713.7
2017-Aug-18 21:01N 49°60' W 001°57'714.2
2017-Aug-18 20:30N 49°58' W 002°08'3215.0
2017-Aug-18 18:24N 49°49' W 002°55'820.0
2017-Aug-18 18:00N 49°42' W 003°00'5116.5 270 / 221018.110.8 16.012.716.0
2017-Aug-18 17:57N 49°46' W 003°04'715.5
2017-Aug-18 17:28N 49°42' W 003°14'715.4
2017-Aug-18 17:01N 49°39' W 003°24'815.4
2017-Aug-18 16:31N 49°34' W 003°33'5817.4
2017-Aug-18 13:11N 49°04' W 004°49'417.8
2017-Aug-18 12:59N 49°03' W 004°54'917.9
2017-Aug-18 12:30N 48°58' W 005°05'918.2
2017-Aug-18 12:00N 48°54' W 005°17'917.9
2017-Aug-18 11:30N 48°49' W 005°29'917.3
2017-Aug-18 11:00N 48°43' W 005°39'54316.8
2017-Aug-17 02:40N 40°11' W 009°52'317.2
2017-Aug-17 02:30N 40°08' W 009°52'1217.4
2017-Aug-17 01:48N 39°56' W 009°52'617.1
2017-Aug-17 01:29N 39°51' W 009°52'817.2
2017-Aug-17 01:00N 39°43' W 009°51'917.3
2017-Aug-17 00:30N 39°34' W 009°51'917.5
2017-Aug-17 00:00N 39°25' W 009°51'917.2
2017-Aug-16 23:30N 39°17' W 009°52'917.4
2017-Aug-16 23:01N 39°08' W 009°52'917.6
2017-Aug-16 22:30N 38°59' W 009°52'917.5
2017-Aug-16 22:00N 38°50' W 009°52'917.4
2017-Aug-16 21:31N 38°42' W 009°51'816.4
2017-Aug-16 21:00N 38°36' W 009°43'918.1
2017-Aug-16 20:31N 38°35' W 009°31'816.6
2017-Aug-16 20:00N 38°38' W 009°21'713.5
2017-Aug-16 19:30N 38°41' W 009°14'510.0
2017-Aug-16 19:01N 38°42' W 009°08'0 0.8
2017-Aug-16 18:30N 38°43' W 009°07'0 0.0
2017-Aug-16 18:00N 38°43' W 009°07'0 0.0
2017-Aug-16 17:30N 38°43' W 009°07'0 0.0
2017-Aug-16 17:00N 38°43' W 009°07'0 0.0
2017-Aug-16 16:30N 38°43' W 009°07'0 0.0
2017-Aug-16 16:00N 38°43' W 009°07'0 0.0
2017-Aug-16 15:30N 38°43' W 009°07'0 0.0
2017-Aug-16 15:00N 38°43' W 009°07'0 0.0
2017-Aug-16 14:30N 38°43' W 009°07'0 0.0
2017-Aug-16 13:57N 38°43' W 009°07'0 0.0
2017-Aug-16 13:30N 38°43' W 009°07'0 0.0
2017-Aug-16 13:00N 38°43' W 009°07'0 0.0
2017-Aug-16 12:30N 38°43' W 009°07'0 0.0
2017-Aug-16 12:00N 38°43' W 009°07'0 0.0
2017-Aug-16 11:30N 38°43' W 009°07'0 0.0
2017-Aug-16 10:57N 38°43' W 009°07'0 0.0
2017-Aug-16 10:30N 38°43' W 009°07'0 0.0
2017-Aug-16 10:00N 38°43' W 009°07'0 0.0
2017-Aug-16 09:30N 38°43' W 009°07'0 0.0
2017-Aug-16 09:00N 38°43' W 009°07'0 0.5
2017-Aug-16 08:30N 38°42' W 009°07'5 9.8
2017-Aug-16 08:00N 38°41' W 009°14'612.9
2017-Aug-16 07:30N 38°38' W 009°21'714.9
2017-Aug-16 07:00N 38°32' W 009°25'918.5
2017-Aug-16 06:30N 38°22' W 009°26'917.1
2017-Aug-16 06:00N 38°14' W 009°25'816.8
2017-Aug-16 05:30N 38°05' W 009°24'816.4
2017-Aug-16 05:01N 37°57' W 009°24'816.5
2017-Aug-16 04:30N 37°49' W 009°24'816.9
2017-Aug-16 04:00N 37°40' W 009°23'816.9
2017-Aug-16 03:30N 37°32' W 009°23'816.8
2017-Aug-16 03:00N 37°24' W 009°23'917.0
2017-Aug-16 02:30N 37°15' W 009°22'916.9
2017-Aug-16 02:00N 37°07' W 009°22'817.1
2017-Aug-16 01:30N 36°58' W 009°21'816.2
2017-Aug-16 01:00N 36°51' W 009°17'816.6
2017-Aug-16 00:31N 36°46' W 009°09'917.6
2017-Aug-16 00:01N 36°44' W 008°58'917.6
2017-Aug-15 23:30N 36°43' W 008°47'917.3
2017-Aug-15 23:00N 36°42' W 008°36'917.1
2017-Aug-15 22:30N 36°41' W 008°26'917.6
2017-Aug-15 22:01N 36°40' W 008°15'917.7
2017-Aug-15 21:29N 36°39' W 008°03'817.6
2017-Aug-15 21:00N 36°39' W 007°53'1117.6
2017-Aug-15 20:24N 36°38' W 007°39'2117.6
2017-Aug-15 19:13N 36°36' W 007°14'81 4.2
2017-Aug-14 23:56N 35°58' W 005°45'1813.3
2017-Aug-14 22:33N 36°00' W 005°23'114.0
2017-Aug-14 22:31N 36°01' W 005°22'713.8
2017-Aug-14 22:00N 36°02' W 005°14'141 7.5
2017-Aug-14 03:18N 36°27' W 002°22'518.4
2017-Aug-14 03:00N 36°26' W 002°15'1017.8
2017-Aug-14 02:27N 36°29' W 002°03'6418.5
2017-Aug-13 23:00N 37°12' W 001°04'918.2
2017-Aug-13 22:30N 37°18' W 000°56'918.2
2017-Aug-13 22:00N 37°25' W 000°48'1118.0
2017-Aug-13 21:25N 37°32' W 000°38'717.8
2017-Aug-13 21:00N 37°37' W 000°32'917.7
2017-Aug-13 20:30N 37°44' W 000°25'4318.1
2017-Aug-13 18:08N 38°20' E 000°04'617.8
2017-Aug-13 17:47N 38°25' E 000°09'114 4.9
2017-Aug-12 18:38N 39°26' E 002°13'213.8
2017-Aug-12 18:30N 39°26' E 002°15'713.8
2017-Aug-12 18:00N 39°26' E 002°24'713.4
2017-Aug-12 17:30N 39°26' E 002°33'612.7
2017-Aug-12 17:00N 39°31' E 002°38'2 4.4
2017-Aug-12 16:30N 39°33' E 002°38'0 0.0
2017-Aug-12 15:59N 39°33' E 002°38'0 0.0
2017-Aug-12 15:29N 39°33' E 002°38'0 0.0
2017-Aug-12 14:59N 39°33' E 002°38'0 0.0
2017-Aug-12 14:29N 39°33' E 002°38'0 0.0
2017-Aug-12 13:59N 39°33' E 002°38'0 0.0
2017-Aug-12 13:29N 39°33' E 002°38'0 0.0
2017-Aug-12 12:59N 39°33' E 002°38'0 0.0
2017-Aug-12 12:29N 39°33' E 002°38'0 0.0
2017-Aug-12 11:59N 39°33' E 002°38'0 0.0
2017-Aug-12 11:29N 39°33' E 002°38'0 0.0
2017-Aug-12 10:59N 39°33' E 002°38'0 0.0
2017-Aug-12 10:23N 39°33' E 002°38'0 0.0
2017-Aug-12 09:59N 39°33' E 002°38'0 0.0
2017-Aug-12 09:29N 39°33' E 002°38'0 0.0
2017-Aug-12 08:59N 39°33' E 002°38'0 0.0
2017-Aug-12 08:29N 39°33' E 002°38'0 0.0
2017-Aug-12 07:59N 39°33' E 002°38'0 0.0
2017-Aug-12 07:29N 39°33' E 002°38'0 0.0
2017-Aug-12 06:59N 39°33' E 002°38'0 0.0
2017-Aug-12 06:29N 39°33' E 002°38'0 0.0
2017-Aug-12 05:59N 39°33' E 002°38'0 0.0
2017-Aug-12 05:29N 39°33' E 002°38'0 0.0
2017-Aug-12 04:59N 39°33' E 002°38'0 0.2
2017-Aug-12 04:30N 39°33' E 002°38'2 3.2
2017-Aug-12 04:01N 39°32' E 002°39'815.5
2017-Aug-12 03:30N 39°25' E 002°33'816.2
2017-Aug-12 03:00N 39°29' E 002°24'1215.7
2017-Aug-12 02:16N 39°38' E 002°16'517.1
2017-Aug-12 02:00N 39°43' E 002°16'817.0
2017-Aug-12 01:30N 39°51' E 002°15'816.9
2017-Aug-12 01:00N 39°60' E 002°15'916.8
2017-Aug-12 00:30N 40°08' E 002°14'817.0
2017-Aug-12 00:00N 40°17' E 002°13'816.8
2017-Aug-11 23:30N 40°25' E 002°12'817.0
2017-Aug-11 23:00N 40°34' E 002°13'917.1
2017-Aug-11 22:30N 40°42' E 002°12'917.1
2017-Aug-11 22:00N 40°51' E 002°12'917.7
2017-Aug-11 21:30N 40°60' E 002°11'917.6
2017-Aug-11 21:00N 41°08' E 002°10'1016.2
2017-Aug-11 20:25N 41°18' E 002°10'  

Dump ship's entire track history